Time;durP1;ratioP1;P1;durP2;ratioP2;P2;SDS_P1;SDS_P2;PMS_P1;PMS_P2;Temp;Humidity;BMP_temperature;BMP_pressure;BME280_temperature;BME280_humidity;BME280_pressure;Samples;Min_cycle;Max_cycle;Signal;HPM_P1;HPM_P2
2022/06/04 00:00:31;;;;;;;12.52;5.72;;;12.60;99.90;;;;;;5031371;28;20435;-73
2022/06/04 00:02:57;;;;;;;14.40;5.75;;;12.70;99.90;;;;;;5028046;28;20105;-74
2022/06/04 00:05:29;;;;;;;11.63;5.65;;;12.50;99.90;;;;;;5027136;28;20124;-73
2022/06/04 00:07:58;;;;;;;10.57;5.25;;;12.60;99.90;;;;;;5031002;28;20034;-73
2022/06/04 00:15:57;;;;;;;10.05;5.20;;;12.50;99.90;;;;;;5027071;28;20075;-73
2022/06/04 00:18:23;;;;;;;12.57;5.70;;;12.50;99.90;;;;;;5028729;28;20524;-73
2022/06/04 00:20:50;;;;;;;8.48;5.00;;;12.50;99.90;;;;;;5013959;28;20122;-74
2022/06/04 00:23:17;;;;;;;12.15;5.22;;;12.50;99.90;;;;;;5027451;28;20033;-74
2022/06/04 00:25:47;;;;;;;9.85;5.40;;;12.60;99.90;;;;;;5030514;28;20121;-73
2022/06/04 00:28:13;;;;;;;11.00;5.22;;;12.40;99.90;;;;;;5031578;28;20045;-74
2022/06/04 00:30:40;;;;;;;11.65;5.90;;;12.40;99.90;;;;;;5030742;28;20068;-74
2022/06/04 00:33:05;;;;;;;12.85;5.20;;;12.40;99.90;;;;;;5029667;28;20472;-74
2022/06/04 00:35:33;;;;;;;10.18;5.75;;;12.40;99.90;;;;;;5030038;28;20029;-73
2022/06/04 00:37:58;;;;;;;13.00;5.97;;;12.30;99.90;;;;;;5030273;28;22096;-73
2022/06/04 00:40:39;;;;;;;9.90;5.72;;;12.40;99.90;;;;;;5027967;28;20052;-74
2022/06/04 00:43:05;;;;;;;10.38;6.00;;;12.30;99.90;;;;;;5029323;28;20046;-74
2022/06/04 00:45:36;;;;;;;15.50;6.13;;;12.30;99.90;;;;;;5029287;28;20049;-74
2022/06/04 00:48:11;;;;;;;12.10;6.55;;;12.20;99.90;;;;;;5026035;28;20377;-73
2022/06/04 00:50:39;;;;;;;14.57;6.55;;;12.20;99.90;;;;;;5030874;28;20623;-73
2022/06/04 00:53:09;;;;;;;15.40;6.65;;;12.20;99.90;;;;;;5028103;28;20044;-74
2022/06/04 00:56:08;;;;;;;15.23;6.72;;;12.20;99.90;;;;;;5011322;28;20068;-74
2022/06/04 00:59:04;;;;;;;15.07;6.50;;;12.20;99.90;;;;;;5017495;28;20094;-74
2022/06/04 01:01:39;;;;;;;10.93;6.55;;;12.20;99.90;;;;;;5028904;28;20479;-74
2022/06/04 01:07:35;;;;;;;17.08;7.57;;;12.20;99.90;;;;;;5028605;28;20038;-74
2022/06/04 01:10:28;;;;;;;16.83;6.90;;;12.20;99.90;;;;;;5027652;28;20034;-74
2022/06/04 01:13:31;;;;;;;12.02;6.57;;;12.20;99.90;;;;;;5027255;28;20045;-73
2022/06/04 01:16:18;;;;;;;14.50;7.38;;;12.10;99.90;;;;;;5029670;28;20040;-74
2022/06/04 01:18:56;;;;;;;15.38;7.30;;;12.10;99.90;;;;;;5025960;28;20088;-74
2022/06/04 01:21:27;;;;;;;16.20;7.53;;;12.10;99.90;;;;;;5027276;28;20790;-73
2022/06/04 01:24:01;;;;;;;15.20;7.65;;;12.00;99.90;;;;;;5026320;28;20053;-74
2022/06/04 01:26:48;;;;;;;16.60;7.07;;;12.00;99.90;;;;;;5029054;28;20049;-73
2022/06/04 01:29:17;;;;;;;17.90;7.60;;;12.10;99.90;;;;;;5029447;28;20045;-74
2022/06/04 01:32:06;;;;;;;12.32;7.10;;;12.00;99.90;;;;;;5028824;28;20048;-73
2022/06/04 01:34:46;;;;;;;14.13;7.60;;;12.00;99.90;;;;;;5016319;28;20049;-74
2022/06/04 01:37:18;;;;;;;18.38;8.05;;;12.00;99.90;;;;;;5026002;28;20044;-74
2022/06/04 01:42:37;;;;;;;18.35;7.43;;;12.00;99.90;;;;;;5023873;28;19924;-73
2022/06/04 01:45:08;;;;;;;14.40;7.22;;;12.00;99.90;;;;;;5029352;28;20064;-73
2022/06/04 01:47:36;;;;;;;14.82;7.85;;;12.00;99.90;;;;;;5029126;28;20385;-73
2022/06/04 01:50:07;;;;;;;16.75;8.55;;;11.90;99.90;;;;;;5029048;28;20037;-73
2022/06/04 01:52:37;;;;;;;14.85;8.45;;;11.90;99.90;;;;;;5009764;28;20048;-74
2022/06/04 01:55:16;;;;;;;18.33;9.35;;;12.00;99.90;;;;;;5028634;28;20088;-73
2022/06/04 01:57:53;;;;;;;15.82;8.88;;;11.90;99.90;;;;;;5028811;28;20041;-74
2022/06/04 02:00:27;;;;;;;17.63;8.38;;;11.90;99.90;;;;;;5028436;28;20041;-73
2022/06/04 02:02:59;;;;;;;15.13;8.52;;;11.90;99.90;;;;;;5027350;28;20041;-74
2022/06/04 02:05:34;;;;;;;16.83;8.70;;;11.90;99.90;;;;;;5026680;28;20029;-73
2022/06/04 02:08:04;;;;;;;16.40;8.60;;;11.90;99.90;;;;;;5025174;28;20044;-73
2022/06/04 02:10:35;;;;;;;20.42;8.75;;;11.90;99.90;;;;;;5026138;28;20045;-73
2022/06/04 02:13:08;;;;;;;15.32;8.60;;;11.90;99.90;;;;;;5025781;28;20068;-74
2022/06/04 02:15:49;;;;;;;17.73;8.65;;;11.80;99.90;;;;;;5025505;28;20045;-73
2022/06/04 02:18:15;;;;;;;15.13;8.65;;;11.80;99.90;;;;;;5025574;28;20044;-73
2022/06/04 02:20:41;;;;;;;16.60;8.63;;;11.80;99.90;;;;;;5029675;28;20029;-74
2022/06/04 02:23:07;;;;;;;18.52;8.70;;;11.80;99.90;;;;;;5026453;28;20558;-73
2022/06/04 02:25:33;;;;;;;15.40;8.68;;;11.80;99.90;;;;;;5027658;28;20033;-73
2022/06/04 02:28:00;;;;;;;19.17;9.48;;;11.70;99.90;;;;;;5027131;28;20579;-73
2022/06/04 02:30:56;;;;;;;15.30;9.07;;;11.80;99.90;;;;;;5025075;28;20041;-74
2022/06/04 02:33:40;;;;;;;15.20;8.32;;;11.80;99.90;;;;;;5016407;28;20073;-73
2022/06/04 02:36:41;;;;;;;18.20;8.77;;;11.70;99.90;;;;;;5028493;28;20045;-73
2022/06/04 02:39:10;;;;;;;17.05;9.32;;;11.70;99.90;;;;;;4998679;28;20055;-73
2022/06/04 02:41:49;;;;;;;14.68;9.00;;;11.60;99.90;;;;;;5015359;28;20042;-74
2022/06/04 02:44:28;;;;;;;21.77;9.75;;;11.60;99.90;;;;;;5028862;28;20057;-74
2022/06/04 02:47:05;;;;;;;16.98;8.90;;;11.60;99.90;;;;;;5032524;28;20055;-73
2022/06/04 02:50:02;;;;;;;12.52;9.38;;;11.60;99.90;;;;;;5030461;28;20037;-73
2022/06/04 02:52:30;;;;;;;17.65;9.30;;;11.70;99.90;;;;;;5031936;28;20041;-73
2022/06/04 02:55:03;;;;;;;13.68;9.07;;;11.50;99.90;;;;;;5031227;28;20038;-74
2022/06/04 02:57:31;;;;;;;14.45;9.48;;;11.50;99.90;;;;;;5030856;28;20108;-73
2022/06/04 02:59:58;;;;;;;16.98;9.50;;;11.50;99.90;;;;;;5033194;28;20033;-73
2022/06/04 03:02:28;;;;;;;18.50;9.25;;;11.50;99.90;;;;;;5032218;28;20120;-73
2022/06/04 03:04:55;;;;;;;19.77;9.60;;;11.50;99.90;;;;;;5031762;28;20033;-73
2022/06/04 03:07:23;;;;;;;15.48;8.98;;;11.50;99.90;;;;;;5030258;28;20050;-74
2022/06/04 03:09:54;;;;;;;16.08;9.82;;;11.50;99.90;;;;;;5015675;28;20037;-74
2022/06/04 03:12:20;;;;;;;16.10;9.77;;;11.50;99.90;;;;;;5015635;28;20045;-73
2022/06/04 03:14:46;;;;;;;18.42;9.40;;;11.50;99.90;;;;;;5015204;28;20072;-73
2022/06/04 03:17:14;;;;;;;15.20;9.57;;;11.50;99.90;;;;;;5032540;28;20427;-74
2022/06/04 03:19:40;;;;;;;16.98;10.27;;;11.50;99.90;;;;;;5030893;28;20041;-74
2022/06/04 03:22:06;;;;;;;19.05;10.65;;;11.50;99.90;;;;;;5032338;28;20031;-73
2022/06/04 03:24:32;;;;;;;20.45;10.30;;;11.50;99.90;;;;;;5028820;28;20037;-73
2022/06/04 03:26:58;;;;;;;18.63;10.88;;;11.40;99.90;;;;;;5016191;28;20434;-74
2022/06/04 03:29:24;;;;;;;19.90;10.95;;;11.50;99.90;;;;;;5032633;28;20073;-74
2022/06/04 03:31:50;;;;;;;20.25;10.65;;;11.50;99.90;;;;;;5030999;28;20072;-74
2022/06/04 03:34:16;;;;;;;18.55;10.43;;;11.40;99.90;;;;;;5030036;28;20029;-74
2022/06/04 03:36:41;;;;;;;21.55;11.68;;;11.40;99.90;;;;;;5027405;28;20041;-74
2022/06/04 03:39:09;;;;;;;15.25;10.77;;;11.40;99.90;;;;;;5029055;28;20136;-74
2022/06/04 03:41:35;;;;;;;19.75;10.95;;;11.40;99.90;;;;;;5030994;28;20029;-74
2022/06/04 03:44:01;;;;;;;16.77;10.70;;;11.40;99.90;;;;;;5012359;28;20034;-74
2022/06/04 03:46:27;;;;;;;17.70;10.50;;;11.40;99.90;;;;;;5027823;28;20037;-74
2022/06/04 03:48:54;;;;;;;18.38;10.45;;;11.40;99.90;;;;;;5011884;28;20290;-74
2022/06/04 03:51:21;;;;;;;17.23;10.45;;;11.50;99.90;;;;;;5031013;28;20056;-73
2022/06/04 03:53:47;;;;;;;19.60;10.02;;;11.50;99.90;;;;;;5029633;28;20392;-74
2022/06/04 03:56:13;;;;;;;17.05;10.93;;;11.40;99.90;;;;;;5028844;28;20040;-74
2022/06/04 03:58:39;;;;;;;18.27;9.57;;;11.40;99.90;;;;;;5031186;28;20049;-74
2022/06/04 04:01:17;;;;;;;17.60;9.95;;;11.40;99.90;;;;;;5031037;28;20030;-74
2022/06/04 04:03:43;;;;;;;19.63;9.60;;;11.40;99.90;;;;;;5029891;28;20041;-73
2022/06/04 04:06:15;;;;;;;16.42;9.52;;;11.50;99.90;;;;;;5028550;28;20043;-73
2022/06/04 04:08:41;;;;;;;16.57;9.03;;;11.50;99.90;;;;;;5026197;28;20030;-73
2022/06/04 04:11:18;;;;;;;16.55;9.35;;;11.50;99.90;;;;;;5029791;28;20092;-74
2022/06/04 04:13:44;;;;;;;18.45;8.45;;;11.50;99.90;;;;;;5030673;28;20048;-74
2022/06/04 04:16:12;;;;;;;13.73;8.18;;;11.60;99.90;;;;;;5030019;28;20048;-74
2022/06/04 04:18:38;;;;;;;16.58;8.57;;;11.50;99.90;;;;;;5028489;28;20385;-74
2022/06/04 04:21:10;;;;;;;13.05;8.27;;;11.60;99.90;;;;;;5031513;28;20033;-73
2022/06/04 04:23:37;;;;;;;20.95;8.40;;;11.60;99.90;;;;;;5031000;28;20041;-74
2022/06/04 04:26:04;;;;;;;11.77;7.68;;;11.60;99.90;;;;;;5028295;28;20037;-74
2022/06/04 04:28:33;;;;;;;14.75;7.55;;;11.60;99.90;;;;;;5032406;28;20487;-73
2022/06/04 04:30:59;;;;;;;13.32;7.55;;;11.60;99.90;;;;;;5030139;28;20045;-74
2022/06/04 04:33:25;;;;;;;15.85;7.22;;;11.70;99.90;;;;;;5029442;28;20519;-73
2022/06/04 04:35:51;;;;;;;11.93;7.30;;;11.60;99.90;;;;;;5031142;28;20029;-73
2022/06/04 04:38:18;;;;;;;10.88;7.25;;;11.70;99.90;;;;;;5027412;28;20045;-74
2022/06/04 04:40:45;;;;;;;12.32;7.57;;;11.70;99.90;;;;;;5030078;28;20038;-73
2022/06/04 04:43:11;;;;;;;14.25;6.90;;;11.70;99.90;;;;;;5026148;28;20484;-73
2022/06/04 04:45:37;;;;;;;10.63;7.00;;;11.80;99.90;;;;;;5031432;28;20396;-74
2022/06/04 04:48:04;;;;;;;9.85;7.03;;;11.80;99.90;;;;;;5027785;28;20041;-73
2022/06/04 04:50:33;;;;;;;14.85;7.53;;;11.80;99.90;;;;;;5024168;28;20586;-73
2022/06/04 04:53:02;;;;;;;14.43;7.35;;;11.80;99.90;;;;;;5026352;28;20025;-73
2022/06/04 04:55:28;;;;;;;13.38;6.72;;;11.90;99.90;;;;;;5022467;28;20819;-73
2022/06/04 04:57:55;;;;;;;16.40;7.28;;;11.90;99.90;;;;;;5025701;28;20037;-73
2022/06/04 05:00:20;;;;;;;12.68;6.57;;;11.90;99.90;;;;;;5022819;28;20041;-73
2022/06/04 05:02:46;;;;;;;10.45;6.70;;;12.00;99.90;;;;;;5024754;28;20042;-72
2022/06/04 05:05:13;;;;;;;16.23;6.85;;;12.00;99.90;;;;;;5023305;28;20504;-73
2022/06/04 05:07:40;;;;;;;12.60;6.20;;;12.10;99.90;;;;;;5025925;28;20496;-73
2022/06/04 05:10:07;;;;;;;11.82;5.97;;;12.20;99.90;;;;;;5022882;28;20510;-73
2022/06/04 05:12:33;;;;;;;9.60;6.10;;;12.20;99.90;;;;;;5024509;28;20041;-73
2022/06/04 05:14:58;;;;;;;14.55;6.22;;;12.30;99.90;;;;;;5022562;28;20115;-73
2022/06/04 05:17:24;;;;;;;8.85;6.25;;;12.30;99.90;;;;;;5024060;28;20128;-73
2022/06/04 05:19:50;;;;;;;10.25;5.63;;;12.40;99.90;;;;;;5025046;28;20124;-73
2022/06/04 05:22:15;;;;;;;11.88;6.00;;;12.40;99.90;;;;;;5021352;28;20046;-73
2022/06/04 05:24:43;;;;;;;10.40;5.90;;;12.50;99.90;;;;;;5023384;28;20040;-73
2022/06/04 05:27:09;;;;;;;9.40;5.32;;;12.60;99.90;;;;;;5023333;28;20052;-73
2022/06/04 05:29:36;;;;;;;10.35;5.60;;;12.60;99.90;;;;;;5021158;28;20400;-73
2022/06/04 05:32:03;;;;;;;8.10;5.30;;;12.70;99.90;;;;;;5022578;28;20045;-73
2022/06/04 05:34:29;;;;;;;11.00;5.75;;;12.80;99.90;;;;;;5023550;28;20033;-73
2022/06/04 05:36:55;;;;;;;9.73;5.63;;;12.90;99.90;;;;;;5023511;28;20049;-72
2022/06/04 05:39:22;;;;;;;11.13;5.45;;;12.90;99.90;;;;;;5020909;28;20040;-73
2022/06/04 05:41:48;;;;;;;9.63;5.28;;;13.00;99.90;;;;;;5019897;28;20160;-72
2022/06/04 05:44:14;;;;;;;8.77;5.40;;;13.00;99.90;;;;;;5019796;28;20717;-73
2022/06/04 05:46:44;;;;;;;9.95;5.68;;;13.00;99.90;;;;;;5020237;28;20057;-73
2022/06/04 05:49:13;;;;;;;8.90;5.50;;;13.10;99.90;;;;;;5039116;28;20060;-73
2022/06/04 05:51:42;;;;;;;12.38;5.43;;;13.20;99.90;;;;;;5018702;28;20044;-73
2022/06/04 05:54:09;;;;;;;9.25;5.63;;;13.20;99.90;;;;;;5021157;28;20427;-72
2022/06/04 05:56:39;;;;;;;7.30;4.97;;;13.20;99.90;;;;;;5022901;28;20100;-73
2022/06/04 05:59:07;;;;;;;9.90;5.57;;;13.30;99.90;;;;;;5024262;28;20399;-73
2022/06/04 06:01:34;;;;;;;6.95;4.90;;;13.40;99.90;;;;;;5024837;28;20044;-73
2022/06/04 06:04:00;;;;;;;10.00;5.20;;;13.50;99.90;;;;;;5021470;28;20087;-73
2022/06/04 06:06:29;;;;;;;8.63;4.97;;;13.60;99.90;;;;;;5010654;28;20048;-73
2022/06/04 06:08:57;;;;;;;9.40;4.97;;;13.60;99.90;;;;;;5013029;28;20037;-73
2022/06/04 06:11:23;;;;;;;7.45;4.93;;;13.60;99.90;;;;;;5027875;28;20508;-72
2022/06/04 06:13:50;;;;;;;7.10;4.65;;;13.70;99.90;;;;;;5021270;28;20060;-73
2022/06/04 06:16:19;;;;;;;8.32;4.80;;;13.80;99.90;;;;;;5029756;28;20042;-73
2022/06/04 06:18:45;;;;;;;8.80;4.82;;;13.80;99.90;;;;;;5028069;28;20045;-72
2022/06/04 06:21:16;;;;;;;7.13;4.60;;;13.80;99.90;;;;;;5023277;28;20033;-72
2022/06/04 06:23:43;;;;;;;12.27;4.83;;;13.80;99.90;;;;;;5038732;28;20037;-73
2022/06/04 06:26:12;;;;;;;7.60;4.75;;;14.00;99.90;;;;;;5023251;28;20299;-73
2022/06/04 06:28:42;;;;;;;7.10;4.68;;;14.00;99.90;;;;;;5026321;28;20033;-73
2022/06/04 06:31:12;;;;;;;5.82;4.43;;;14.00;99.90;;;;;;5027206;28;20538;-73
2022/06/04 06:33:38;;;;;;;9.23;4.90;;;14.00;99.90;;;;;;5029028;28;20052;-73
2022/06/04 06:36:07;;;;;;;8.55;4.72;;;14.00;99.90;;;;;;5025399;28;20123;-73
2022/06/04 06:38:34;;;;;;;5.97;4.22;;;14.00;99.90;;;;;;5022933;28;20069;-73
2022/06/04 06:41:00;;;;;;;7.93;4.43;;;14.00;99.90;;;;;;5021767;28;20395;-72
2022/06/04 06:43:33;;;;;;;5.00;4.00;;;14.00;99.90;;;;;;5023292;28;20053;-72
2022/06/04 06:46:15;;;;;;;6.22;4.00;;;14.10;99.90;;;;;;5021879;28;20631;-73
2022/06/04 06:48:43;;;;;;;7.32;4.28;;;14.40;99.90;;;;;;5021590;28;20048;-72
2022/06/04 06:51:16;;;;;;;7.38;4.10;;;14.40;99.90;;;;;;5022170;28;20045;-72
2022/06/04 06:53:42;;;;;;;6.95;4.45;;;14.50;99.90;;;;;;5024045;28;20057;-74
2022/06/04 06:56:12;;;;;;;7.00;4.05;;;14.60;99.90;;;;;;5021981;28;20097;-74
2022/06/04 06:58:38;;;;;;;6.35;3.83;;;14.70;99.90;;;;;;5023875;28;20045;-73
2022/06/04 07:01:04;;;;;;;5.47;3.95;;;14.80;99.90;;;;;;5023295;28;20067;-72
2022/06/04 07:03:30;;;;;;;5.95;3.55;;;14.90;99.90;;;;;;5024932;28;20094;-74
2022/06/04 07:05:56;;;;;;;7.13;3.58;;;15.00;99.90;;;;;;5023773;28;20503;-73
2022/06/04 07:08:22;;;;;;;7.18;3.65;;;15.10;99.90;;;;;;5023522;28;20046;-74
2022/06/04 07:10:48;;;;;;;5.13;3.55;;;15.20;99.90;;;;;;5023520;28;20099;-72
2022/06/04 07:13:14;;;;;;;4.75;3.60;;;15.40;99.90;;;;;;5036137;28;20060;-74
2022/06/04 07:15:41;;;;;;;4.75;3.55;;;15.50;99.90;;;;;;5024391;28;20041;-73
2022/06/04 07:18:09;;;;;;;7.45;3.42;;;15.60;99.90;;;;;;5022192;28;20042;-74
2022/06/04 07:20:37;;;;;;;7.10;3.90;;;15.60;99.90;;;;;;5022630;28;20123;-74
2022/06/04 07:23:03;;;;;;;4.75;3.50;;;15.80;99.90;;;;;;5023482;28;20037;-74
2022/06/04 07:25:29;;;;;;;7.80;3.53;;;15.90;99.90;;;;;;5026279;28;20039;-73
2022/06/04 07:27:55;;;;;;;6.13;3.50;;;16.00;99.90;;;;;;5026188;28;20038;-73
2022/06/04 07:30:21;;;;;;;6.78;3.70;;;16.10;99.90;;;;;;5026393;28;20717;-73
2022/06/04 07:32:46;;;;;;;6.18;3.30;;;16.30;99.90;;;;;;5042243;28;20041;-74
2022/06/04 07:35:12;;;;;;;6.63;3.38;;;16.40;99.90;;;;;;5010933;28;20052;-75
2022/06/04 07:37:38;;;;;;;5.35;3.05;;;16.60;99.90;;;;;;5024619;28;20052;-74
2022/06/04 07:40:04;;;;;;;4.43;3.30;;;16.60;99.90;;;;;;5026536;28;20049;-74
2022/06/04 07:42:30;;;;;;;6.90;3.65;;;16.80;99.90;;;;;;5025879;28;20053;-72
2022/06/04 07:44:57;;;;;;;5.03;3.17;;;17.00;99.90;;;;;;5025135;28;20068;-74
2022/06/04 07:47:24;;;;;;;6.38;3.45;;;17.00;99.90;;;;;;5025961;28;20037;-74
2022/06/04 07:49:50;;;;;;;4.55;3.38;;;17.10;99.90;;;;;;5023725;28;20044;-74
2022/06/04 07:52:16;;;;;;;6.15;3.38;;;17.30;99.90;;;;;;5024260;28;20858;-73
2022/06/04 07:54:42;;;;;;;3.80;3.20;;;17.40;99.90;;;;;;5024644;28;20029;-74
2022/06/04 07:57:08;;;;;;;8.00;3.30;;;17.50;99.90;;;;;;5023982;28;20046;-74
2022/06/04 07:59:34;;;;;;;5.25;3.40;;;17.60;99.90;;;;;;5022159;28;20056;-74
2022/06/04 08:01:59;;;;;;;6.45;3.65;;;17.80;99.90;;;;;;5025035;28;20044;-74
2022/06/04 08:04:25;;;;;;;5.50;3.10;;;17.90;99.90;;;;;;5026790;28;20172;-73
2022/06/04 08:06:51;;;;;;;4.15;3.15;;;18.10;99.90;;;;;;5024263;28;20033;-75
2022/06/04 08:09:17;;;;;;;4.28;3.40;;;18.20;99.90;;;;;;5040335;28;20040;-74
2022/06/04 08:11:42;;;;;;;4.97;3.00;;;18.40;99.90;;;;;;5024790;28;20044;-75
2022/06/04 08:14:13;;;;;;;5.32;3.28;;;18.50;99.90;;;;;;5026133;28;20411;-74
2022/06/04 08:16:44;;;;;;;5.65;3.70;;;18.50;99.90;;;;;;5025215;28;20073;-75
2022/06/04 08:19:10;;;;;;;5.22;3.50;;;18.60;99.90;;;;;;5024712;28;20037;-74
2022/06/04 08:21:38;;;;;;;5.38;3.50;;;18.70;99.90;;;;;;5025738;28;20049;-75
2022/06/04 08:24:05;;;;;;;4.63;3.13;;;18.70;99.90;;;;;;5024356;28;20049;-74
2022/06/04 08:26:31;;;;;;;4.30;3.50;;;18.80;99.90;;;;;;5024558;28;20033;-75
2022/06/04 08:28:57;;;;;;;5.00;3.05;;;18.90;99.90;;;;;;5024816;28;20045;-75
2022/06/04 08:31:23;;;;;;;7.15;3.78;;;19.10;99.90;;;;;;5023647;28;20052;-75
2022/06/04 08:33:49;;;;;;;6.70;4.30;;;19.20;99.90;;;;;;5023347;28;20045;-75
2022/06/04 08:36:16;;;;;;;5.43;3.55;;;19.30;99.90;;;;;;5023083;28;20090;-74
2022/06/04 08:38:43;;;;;;;5.47;3.70;;;19.40;99.90;;;;;;5022716;28;20046;-75
2022/06/04 08:41:40;;;;;;;6.75;3.83;;;19.40;99.90;;;;;;5023730;28;20034;-75
2022/06/04 08:44:19;;;;;;;5.75;3.45;;;19.40;99.90;;;;;;5025977;28;20594;-75
2022/06/04 08:46:56;;;;;;;5.10;3.50;;;19.40;99.90;;;;;;5025523;28;20029;-74
2022/06/04 08:49:42;;;;;;;4.97;3.47;;;19.30;99.90;;;;;;5022763;28;20045;-75
2022/06/04 08:52:13;;;;;;;5.35;3.45;;;19.30;99.90;;;;;;5024114;28;20040;-75
2022/06/04 08:57:46;;;;;;;5.28;3.45;;;19.50;99.90;;;;;;5022444;28;20065;-73
2022/06/04 09:00:21;;;;;;;5.55;3.47;;;19.50;99.90;;;;;;5023156;28;20087;-75
2022/06/04 09:02:47;;;;;;;5.60;3.55;;;19.50;99.90;;;;;;5040814;28;20056;-73
2022/06/04 09:05:48;;;;;;;4.07;3.42;;;19.50;99.70;;;;;;5009152;28;20125;-74
2022/06/04 09:08:22;;;;;;;5.20;3.83;;;19.50;99.30;;;;;;5021656;28;20051;-74
2022/06/04 09:10:51;;;;;;;5.78;3.30;;;19.60;99.70;;;;;;5022764;28;20046;-74
2022/06/04 09:13:23;;;;;;;5.25;3.60;;;19.70;99.30;;;;;;5025993;28;20086;-74
2022/06/04 09:15:51;;;;;;;5.20;4.10;;;19.70;99.30;;;;;;5023294;28;20046;-74
2022/06/04 09:18:24;;;;;;;7.40;4.25;;;19.60;99.60;;;;;;5026522;28;20683;-74
2022/06/04 09:20:56;;;;;;;5.95;3.33;;;19.60;99.00;;;;;;5024571;28;20045;-74
2022/06/04 09:23:34;;;;;;;;;;;19.60;99.90;;;;;;5022872;28;20050;-75
2022/06/04 09:26:13;;;;;;;4.85;3.03;;;19.80;99.90;;;;;;5007120;28;20007;-74
2022/06/04 09:28:52;;;;;;;6.97;3.33;;;20.20;99.40;;;;;;5023875;28;20120;-74
2022/06/04 09:31:43;;;;;;;5.78;3.22;;;20.40;98.50;;;;;;5024577;28;20175;-73
2022/06/04 09:34:14;;;;;;;4.80;3.30;;;20.70;96.30;;;;;;5022964;28;20041;-74
2022/06/04 09:36:42;;;;;;;5.10;3.43;;;20.80;94.80;;;;;;5024167;28;20819;-73
2022/06/04 09:39:29;;;;;;;4.63;3.67;;;20.80;95.70;;;;;;5022004;28;20163;-74
2022/06/04 09:42:00;;;;;;;5.82;3.63;;;20.80;95.50;;;;;;5021571;28;20029;-75
2022/06/04 09:44:27;;;;;;;6.28;3.78;;;20.80;96.40;;;;;;5022925;28;20104;-73
2022/06/04 09:47:05;;;;;;;6.43;3.95;;;20.80;96.40;;;;;;5040373;28;20132;-75
2022/06/04 09:49:40;;;;;;;5.55;4.07;;;20.80;95.80;;;;;;5024117;28;20419;-74
2022/06/04 09:52:32;;;;;;;3.95;3.55;;;20.80;96.10;;;;;;5021737;28;20041;-75
2022/06/04 09:55:06;;;;;;;7.47;3.90;;;20.90;94.80;;;;;;5020730;28;20076;-74
2022/06/04 09:57:35;;;;;;;6.38;3.47;;;21.00;97.10;;;;;;5023605;28;20076;-75
2022/06/04 10:00:06;;;;;;;5.93;3.78;;;21.20;97.50;;;;;;5021692;28;20369;-73
2022/06/04 10:02:32;;;;;;;5.88;3.80;;;21.30;96.80;;;;;;5023011;28;20036;-74
2022/06/04 10:05:17;;;;;;;4.85;3.63;;;21.50;94.40;;;;;;5022655;28;20852;-72
2022/06/04 10:07:43;;;;;;;5.18;3.55;;;21.60;94.00;;;;;;5021159;28;20059;-74
2022/06/04 10:10:31;;;;;;;7.15;3.72;;;21.60;94.30;;;;;;5023349;28;20391;-74
2022/06/04 10:15:48;;;;;;;5.97;3.75;;;21.70;92.90;;;;;;5020097;28;20392;-75
2022/06/04 10:18:18;;;;;;;5.07;3.10;;;21.80;94.70;;;;;;5021252;28;20120;-75
2022/06/04 10:21:00;;;;;;;4.68;3.33;;;22.00;94.00;;;;;;5022285;28;20104;-75
2022/06/04 10:23:28;;;;;;;4.05;3.15;;;22.10;91.40;;;;;;5023906;28;20539;-75
2022/06/04 10:26:09;;;;;;;5.70;3.28;;;22.20;90.60;;;;;;5023416;28;20045;-75
2022/06/04 10:28:53;;;;;;;4.95;3.30;;;22.40;91.80;;;;;;5021323;28;20045;-74
2022/06/04 10:31:46;;;;;;;4.47;3.33;;;22.70;92.70;;;;;;5020984;28;20124;-75
2022/06/04 10:34:42;;;;;;;5.32;3.20;;;23.00;86.80;;;;;;5021956;28;20068;-74
2022/06/04 10:37:24;;;;;;;5.85;3.30;;;23.10;87.00;;;;;;5021500;28;20052;-74
2022/06/04 10:40:15;;;;;;;8.20;3.58;;;23.20;84.80;;;;;;5022869;28;20117;-75
2022/06/04 10:43:01;;;;;;;5.95;3.53;;;23.20;86.90;;;;;;5023467;28;20387;-75
2022/06/04 10:45:34;;;;;;;4.57;3.53;;;23.30;82.10;;;;;;5023517;28;20033;-74
2022/06/04 10:48:15;;;;;;;6.30;3.83;;;23.30;82.90;;;;;;5021593;28;20423;-74
2022/06/04 10:54:10;;;;;;;5.22;3.20;;;23.80;79.60;;;;;;5012848;28;20132;-74
2022/06/04 10:56:59;;;;;;;4.70;3.42;;;23.80;76.00;;;;;;5011695;28;20053;-74
2022/06/04 10:59:33;;;;;;;6.35;3.40;;;23.90;72.60;;;;;;4980942;28;20117;-75
2022/06/04 11:02:03;;;;;;;5.30;2.90;;;24.00;73.40;;;;;;5028279;28;20037;-75
2022/06/04 11:04:52;;;;;;;3.40;2.75;;;24.10;76.20;;;;;;5023621;28;20458;-75
2022/06/04 11:07:32;;;;;;;5.95;3.08;;;24.30;77.70;;;;;;5025346;28;20041;-75
2022/06/04 11:09:58;;;;;;;3.45;2.70;;;24.40;72.80;;;;;;5025757;28;20049;-75
2022/06/04 11:13:06;;;;;;;5.07;2.60;;;24.50;72.60;;;;;;5023654;28;20037;-75
2022/06/04 11:15:44;;;;;;;5.10;2.67;;;24.60;70.90;;;;;;5038628;28;20087;-75
2022/06/04 11:18:17;;;;;;;4.90;2.60;;;24.70;71.90;;;;;;5024141;28;20395;-74
2022/06/04 11:20:52;;;;;;;3.92;2.42;;;24.90;68.40;;;;;;5024295;28;20068;-74
2022/06/04 11:23:39;;;;;;;5.28;2.67;;;24.90;68.30;;;;;;5026989;28;20041;-74
2022/06/04 11:26:15;;;;;;;2.95;2.60;;;24.90;66.20;;;;;;5026377;28;20072;-73
2022/06/04 11:28:41;;;;;;;5.10;2.67;;;24.90;67.60;;;;;;5025803;28;20037;-74
2022/06/04 11:31:28;;;;;;;2.90;2.38;;;25.00;66.50;;;;;;5026129;28;20041;-74
2022/06/04 11:33:56;;;;;;;3.53;2.40;;;25.00;67.10;;;;;;5025097;28;20049;-75
2022/06/04 11:36:40;;;;;;;3.80;2.50;;;25.20;67.60;;;;;;5024978;28;20080;-74
2022/06/04 11:39:30;;;;;;;5.72;2.65;;;25.40;65.70;;;;;;5025813;28;20041;-74
2022/06/04 11:42:11;;;;;;;3.25;2.10;;;25.60;66.40;;;;;;5026709;28;20045;-74
2022/06/04 11:45:10;;;;;;;5.72;2.20;;;25.80;59.70;;;;;;5027156;28;20130;-74
2022/06/04 11:47:57;;;;;;;5.72;2.30;;;25.70;61.50;;;;;;5026727;28;20045;-75
2022/06/04 11:50:35;;;;;;;5.40;2.30;;;25.60;61.50;;;;;;5030982;28;20388;-74
2022/06/04 11:53:32;;;;;;;4.55;2.10;;;25.50;59.60;;;;;;5014427;28;20054;-74
2022/06/04 11:56:29;;;;;;;3.38;2.20;;;25.40;61.50;;;;;;5014132;28;20772;-74
2022/06/04 11:59:37;;;;;;;3.15;1.90;;;25.40;59.80;;;;;;4961227;28;20181;-74
2022/06/04 12:02:12;;;;;;;4.72;2.00;;;25.40;60.10;;;;;;5030532;28;20041;-75
2022/06/04 12:05:03;;;;;;;4.53;2.13;;;25.40;58.80;;;;;;5029135;28;20068;-74
2022/06/04 12:07:37;;;;;;;5.25;2.00;;;25.30;58.70;;;;;;5030557;28;20075;-74
2022/06/04 12:10:14;;;;;;;3.75;1.92;;;25.20;57.80;;;;;;5030707;28;20041;-74
2022/06/04 12:12:59;;;;;;;6.28;2.30;;;25.20;58.70;;;;;;5030254;28;20040;-74
2022/06/04 12:15:45;;;;;;;2.63;1.80;;;25.10;61.40;;;;;;5029832;28;20037;-75
2022/06/04 12:18:29;;;;;;;5.60;2.20;;;25.30;60.90;;;;;;5030784;28;20045;-74
2022/06/04 12:26:37;;;;;;;2.72;1.83;;;25.60;55.40;;;;;;5032317;28;20038;-74
2022/06/04 12:29:28;;;;;;;3.40;2.10;;;25.60;57.00;;;;;;5028832;28;20124;-74
2022/06/04 12:32:01;;;;;;;2.78;1.77;;;25.60;59.00;;;;;;5029462;28;20124;-74
2022/06/04 12:34:39;;;;;;;3.80;2.05;;;25.60;58.80;;;;;;5031422;28;20072;-74
2022/06/04 12:37:24;;;;;;;3.38;1.70;;;25.80;61.20;;;;;;5042932;28;20057;-74
2022/06/04 12:39:50;;;;;;;3.63;2.20;;;26.00;58.50;;;;;;5030627;28;20037;-75
2022/06/04 12:42:19;;;;;;;3.17;1.90;;;26.10;57.50;;;;;;5024330;28;20092;-75
2022/06/04 12:45:00;;;;;;;4.90;2.00;;;26.20;55.20;;;;;;5024766;28;20045;-75
2022/06/04 12:47:32;;;;;;;4.57;2.00;;;26.30;57.20;;;;;;5024555;28;20041;-75
2022/06/04 12:50:18;;;;;;;3.40;1.80;;;26.40;57.50;;;;;;5024894;28;20331;-75
2022/06/04 12:52:55;;;;;;;4.80;2.10;;;26.40;55.90;;;;;;5024521;28;20052;-75
2022/06/04 12:55:26;;;;;;;3.88;2.20;;;26.50;56.50;;;;;;5024571;28;20615;-75
2022/06/04 12:57:58;;;;;;;3.55;2.05;;;26.70;55.80;;;;;;5037545;28;20080;-75
2022/06/04 13:00:26;;;;;;;;;;;26.80;57.20;;;;;;5025606;28;20041;-75
2022/06/04 13:03:06;;;;;;;3.92;2.10;;;26.80;56.40;;;;;;5024632;28;20020;-75
2022/06/04 13:05:52;;;;;;;5.57;2.40;;;26.80;56.50;;;;;;5029058;28;20038;-75
2022/06/04 13:08:30;;;;;;;3.90;2.47;;;26.60;56.00;;;;;;5025879;28;20037;-75
2022/06/04 13:11:20;;;;;;;5.72;2.30;;;26.30;56.60;;;;;;5041193;28;20042;-75
2022/06/04 13:14:18;;;;;;;4.25;2.40;;;26.20;56.60;;;;;;5026738;28;20515;-75
2022/06/04 13:16:56;;;;;;;4.40;2.10;;;26.20;57.60;;;;;;5022173;28;20052;-75
2022/06/04 13:19:54;;;;;;;5.50;2.60;;;26.10;56.70;;;;;;5025976;28;20056;-75
2022/06/04 13:22:25;;;;;;;3.13;2.00;;;26.00;56.20;;;;;;5024364;28;20069;-75
2022/06/04 13:24:52;;;;;;;3.22;2.17;;;25.90;56.30;;;;;;5029528;28;20041;-75
2022/06/04 13:27:32;;;;;;;5.10;1.98;;;25.80;56.60;;;;;;5030865;28;20048;-75
2022/06/04 13:29:58;;;;;;;4.72;2.17;;;25.70;58.40;;;;;;5022220;28;20045;-75
2022/06/04 13:32:24;;;;;;;5.18;2.03;;;25.70;55.00;;;;;;5021653;28;20054;-75
2022/06/04 13:34:50;;;;;;;3.50;2.30;;;25.60;55.30;;;;;;5024417;28;20042;-75
2022/06/04 13:37:26;;;;;;;4.45;1.83;;;25.50;55.60;;;;;;5023217;28;20080;-74